Time;durP1;ratioP1;P1;durP2;ratioP2;P2;SDS_P1;SDS_P2;PMS_P1;PMS_P2;Temp;Humidity;BMP_temperature;BMP_pressure;BME280_temperature;BME280_humidity;BME280_pressure;Samples;Min_cycle;Max_cycle;Signal;HPM_P1;HPM_P2
2021/05/19 00:01:01;;;;;;;9.70;6.43;;;10.30;99.90;;;;;;4393576;32;20174;-76
2021/05/19 00:03:28;;;;;;;10.13;7.40;;;10.30;99.90;;;;;;4395007;32;20136;-75
2021/05/19 00:05:55;;;;;;;7.97;5.93;;;10.30;99.90;;;;;;4393014;32;20135;-76
2021/05/19 00:08:21;;;;;;;11.73;6.20;;;10.30;99.90;;;;;;4393781;32;20144;-77
2021/05/19 00:10:48;;;;;;;9.30;5.80;;;10.20;99.90;;;;;;4393520;32;20185;-77
2021/05/19 00:13:15;;;;;;;9.40;6.50;;;10.30;99.90;;;;;;4394955;32;20185;-77
2021/05/19 00:15:42;;;;;;;9.53;6.10;;;10.30;99.90;;;;;;4392942;32;20206;-77
2021/05/19 00:18:09;;;;;;;9.33;6.37;;;10.30;99.90;;;;;;4393710;32;20143;-77
2021/05/19 00:20:36;;;;;;;8.33;5.67;;;10.30;99.90;;;;;;4398099;32;20135;-78
2021/05/19 00:23:03;;;;;;;9.60;6.27;;;10.20;99.90;;;;;;4396899;32;20192;-80
2021/05/19 00:25:30;;;;;;;8.03;5.80;;;10.20;99.90;;;;;;4396605;32;20178;-77
2021/05/19 00:27:57;;;;;;;8.27;5.93;;;10.20;99.90;;;;;;4398022;32;20185;-77
2021/05/19 00:30:24;;;;;;;8.00;6.40;;;10.30;99.90;;;;;;4396516;32;20147;-78
2021/05/19 00:32:51;;;;;;;8.13;6.20;;;10.20;99.90;;;;;;4396364;32;20348;-77
2021/05/19 00:35:18;;;;;;;9.80;5.77;;;10.20;99.90;;;;;;4396334;32;20206;-77
2021/05/19 00:37:44;;;;;;;7.67;5.90;;;10.10;99.90;;;;;;4396258;32;20135;-78
2021/05/19 00:40:13;;;;;;;9.43;5.67;;;10.10;99.90;;;;;;4396510;32;20438;-78
2021/05/19 00:42:40;;;;;;;9.43;5.70;;;10.10;99.90;;;;;;4396336;32;20377;-77
2021/05/19 00:45:09;;;;;;;7.23;5.80;;;10.10;99.90;;;;;;4402479;32;20166;-76
2021/05/19 00:47:38;;;;;;;7.73;5.43;;;10.10;99.90;;;;;;4412892;32;20170;-77
2021/05/19 00:50:08;;;;;;;9.13;6.00;;;10.00;99.90;;;;;;4411396;32;20162;-77
2021/05/19 00:52:35;;;;;;;8.80;6.60;;;10.10;99.90;;;;;;4411938;32;20371;-77
2021/05/19 00:55:03;;;;;;;8.57;6.10;;;10.10;99.90;;;;;;4411352;32;20132;-78
2021/05/19 00:57:30;;;;;;;9.10;5.77;;;10.20;99.90;;;;;;4411317;32;20229;-78
2021/05/19 00:59:58;;;;;;;8.70;5.90;;;10.10;99.90;;;;;;4411334;32;20529;-78
2021/05/19 01:02:25;;;;;;;8.23;5.60;;;10.20;99.90;;;;;;4412749;32;20132;-78
2021/05/19 01:04:53;;;;;;;8.93;6.27;;;10.20;99.90;;;;;;4411312;32;20142;-78
2021/05/19 01:07:24;;;;;;;8.43;6.20;;;10.30;99.90;;;;;;4412791;32;20159;-78
2021/05/19 01:09:51;;;;;;;10.43;6.20;;;10.30;99.90;;;;;;4411190;32;20143;-78
2021/05/19 01:12:23;;;;;;;9.63;5.90;;;10.40;99.90;;;;;;4412531;32;20152;-78
2021/05/19 01:14:52;;;;;;;9.87;5.70;;;10.30;99.90;;;;;;4411682;32;20407;-77
2021/05/19 01:17:20;;;;;;;9.00;5.93;;;10.20;99.90;;;;;;4412413;32;20158;-77
2021/05/19 01:19:50;;;;;;;6.83;5.33;;;10.30;99.90;;;;;;4410882;32;20157;-77
2021/05/19 01:22:26;;;;;;;10.37;6.13;;;10.20;99.90;;;;;;4410770;32;20403;-77
2021/05/19 01:24:55;;;;;;;8.73;5.40;;;10.20;99.90;;;;;;4411082;32;20147;-77
2021/05/19 01:27:23;;;;;;;9.53;5.67;;;10.20;99.90;;;;;;4410921;32;20169;-77
2021/05/19 01:29:55;;;;;;;6.13;5.00;;;10.30;99.90;;;;;;4410042;32;20164;-76
2021/05/19 01:32:23;;;;;;;6.43;4.97;;;10.20;99.90;;;;;;4411094;32;20173;-76
2021/05/19 01:34:51;;;;;;;8.40;5.43;;;10.20;99.90;;;;;;4410667;32;20143;-76
2021/05/19 01:37:18;;;;;;;7.37;5.33;;;10.20;99.90;;;;;;4410671;32;20138;-76
2021/05/19 01:39:46;;;;;;;7.80;5.40;;;10.20;99.90;;;;;;4410639;32;20127;-77
2021/05/19 01:42:14;;;;;;;8.57;5.30;;;10.20;99.90;;;;;;4411431;32;20202;-77
2021/05/19 01:44:41;;;;;;;6.90;4.93;;;10.20;99.90;;;;;;4410501;32;20179;-77
2021/05/19 01:47:09;;;;;;;8.03;5.23;;;10.20;99.90;;;;;;4410760;32;20139;-76
2021/05/19 01:49:42;;;;;;;9.57;5.83;;;10.20;99.90;;;;;;4410541;32;20139;-76
2021/05/19 01:52:11;;;;;;;7.67;5.43;;;10.10;99.90;;;;;;4411894;32;20466;-76
2021/05/19 01:54:42;;;;;;;7.83;5.63;;;10.20;99.90;;;;;;4409913;32;20165;-76
2021/05/19 01:57:10;;;;;;;7.67;5.63;;;10.20;99.90;;;;;;4411937;32;20446;-76
2021/05/19 01:59:37;;;;;;;8.43;5.03;;;10.10;99.90;;;;;;4411854;32;20456;-76
2021/05/19 02:02:04;;;;;;;8.23;5.30;;;10.10;99.90;;;;;;4410424;32;20278;-76
2021/05/19 02:04:31;;;;;;;7.77;4.73;;;10.10;99.90;;;;;;4411696;32;20182;-76
2021/05/19 02:07:00;;;;;;;6.17;4.53;;;10.10;99.90;;;;;;4412089;32;20202;-77
2021/05/19 02:09:27;;;;;;;8.03;4.43;;;10.10;99.90;;;;;;4410254;32;20467;-76
2021/05/19 02:11:55;;;;;;;5.40;4.27;;;10.10;99.90;;;;;;4410230;32;20141;-76
2021/05/19 02:14:22;;;;;;;5.07;4.10;;;10.10;99.90;;;;;;4409607;32;20254;-77
2021/05/19 02:16:49;;;;;;;6.70;4.00;;;10.10;99.90;;;;;;4410241;32;20128;-77
2021/05/19 02:19:16;;;;;;;5.43;4.10;;;10.10;99.90;;;;;;4414245;32;20150;-76
2021/05/19 02:21:45;;;;;;;5.57;3.50;;;10.20;99.90;;;;;;4425138;32;20162;-76
2021/05/19 02:24:13;;;;;;;4.97;3.73;;;10.10;99.90;;;;;;4426109;32;20162;-77
2021/05/19 02:26:42;;;;;;;3.87;3.20;;;10.10;99.90;;;;;;4425294;32;20193;-77
2021/05/19 02:29:10;;;;;;;5.40;3.30;;;10.10;99.90;;;;;;4424616;32;20185;-77
2021/05/19 02:31:38;;;;;;;3.93;2.93;;;10.10;99.90;;;;;;4426227;32;20191;-77
2021/05/19 02:34:06;;;;;;;6.60;3.20;;;10.10;99.90;;;;;;4425060;32;20235;-77
2021/05/19 02:36:33;;;;;;;7.30;3.00;;;10.10;99.90;;;;;;4426749;32;20383;-77
2021/05/19 02:39:03;;;;;;;4.50;3.33;;;10.10;99.90;;;;;;4425334;32;20150;-77
2021/05/19 02:41:29;;;;;;;3.93;2.60;;;10.10;99.90;;;;;;4425395;32;20143;-77
2021/05/19 02:43:56;;;;;;;5.53;2.93;;;10.10;99.90;;;;;;4424949;32;20188;-77
2021/05/19 02:46:23;;;;;;;4.27;3.40;;;10.00;99.90;;;;;;4424611;32;20151;-77
2021/05/19 02:48:51;;;;;;;4.70;3.57;;;10.00;99.90;;;;;;4425946;32;20400;-77
2021/05/19 02:51:17;;;;;;;4.40;3.20;;;10.10;99.90;;;;;;4424620;32;20165;-77
2021/05/19 02:53:44;;;;;;;4.57;3.47;;;10.10;99.90;;;;;;4424891;32;20454;-76
2021/05/19 02:56:11;;;;;;;6.03;2.83;;;10.00;99.90;;;;;;4424891;32;20220;-77
2021/05/19 02:58:38;;;;;;;5.77;3.50;;;10.00;99.90;;;;;;4424722;32;20157;-77
2021/05/19 03:01:05;;;;;;;5.30;3.40;;;10.00;99.90;;;;;;4424977;32;20131;-77
2021/05/19 03:03:32;;;;;;;6.87;3.33;;;10.10;99.90;;;;;;4424715;32;20368;-77
2021/05/19 03:05:59;;;;;;;5.93;3.47;;;10.00;99.90;;;;;;4425166;32;20143;-77
2021/05/19 03:08:26;;;;;;;4.70;3.30;;;10.10;99.90;;;;;;4426131;32;20181;-77
2021/05/19 03:10:52;;;;;;;4.10;3.13;;;10.10;99.90;;;;;;4424684;32;20154;-77
2021/05/19 03:13:19;;;;;;;5.37;3.40;;;10.10;99.90;;;;;;4424516;32;20176;-77
2021/05/19 03:15:46;;;;;;;5.33;3.13;;;10.10;99.90;;;;;;4424685;32;20150;-77
2021/05/19 03:18:13;;;;;;;5.03;3.40;;;10.00;99.90;;;;;;4425984;32;20184;-76
2021/05/19 03:20:40;;;;;;;5.03;3.60;;;10.00;99.90;;;;;;4425029;32;20127;-77
2021/05/19 03:23:07;;;;;;;6.33;3.67;;;10.00;99.90;;;;;;4424435;32;20157;-77
2021/05/19 03:25:34;;;;;;;7.67;4.13;;;10.00;99.90;;;;;;4424447;32;20240;-77
2021/05/19 03:28:01;;;;;;;5.33;4.30;;;10.00;99.90;;;;;;4426064;32;20139;-77
2021/05/19 03:30:28;;;;;;;7.33;4.57;;;10.00;99.90;;;;;;4424380;32;20138;-77
2021/05/19 03:32:55;;;;;;;8.77;4.57;;;10.00;99.90;;;;;;4425797;32;20206;-77
2021/05/19 03:35:22;;;;;;;8.37;5.07;;;10.10;99.90;;;;;;4424423;32;20174;-77
2021/05/19 03:37:49;;;;;;;8.20;4.90;;;10.20;99.90;;;;;;4424348;32;20128;-77
2021/05/19 03:40:16;;;;;;;9.27;4.83;;;10.20;99.90;;;;;;4425741;32;20183;-78
2021/05/19 03:42:44;;;;;;;8.63;5.27;;;10.20;99.90;;;;;;4424207;32;20139;-77
2021/05/19 03:45:16;;;;;;;8.13;5.00;;;10.20;99.90;;;;;;4425514;32;20229;-77
2021/05/19 03:47:45;;;;;;;7.30;5.33;;;10.20;99.90;;;;;;4424664;32;20184;-77
2021/05/19 03:50:13;;;;;;;11.73;5.70;;;10.20;99.90;;;;;;4424094;32;20151;-77
2021/05/19 03:52:40;;;;;;;8.63;5.50;;;10.20;99.90;;;;;;4423778;32;20177;-77
2021/05/19 03:55:08;;;;;;;9.10;5.10;;;10.20;99.90;;;;;;4423992;32;20496;-77
2021/05/19 03:57:36;;;;;;;8.13;5.37;;;10.20;99.90;;;;;;4424060;32;20131;-77
2021/05/19 04:00:06;;;;;;;8.63;5.60;;;10.10;99.90;;;;;;4423679;32;20467;-77
2021/05/19 04:02:33;;;;;;;8.60;5.73;;;10.20;99.90;;;;;;4424991;32;20469;-76
2021/05/19 04:05:00;;;;;;;9.23;5.50;;;10.10;99.90;;;;;;4423816;32;20143;-77
2021/05/19 04:07:27;;;;;;;8.73;5.37;;;10.10;99.90;;;;;;4423906;32;20135;-76
2021/05/19 04:09:54;;;;;;;11.10;5.57;;;10.10;99.90;;;;;;4425021;32;20163;-77
2021/05/19 04:12:21;;;;;;;7.87;4.93;;;10.10;99.90;;;;;;4423005;32;20423;-77
2021/05/19 04:14:48;;;;;;;8.63;6.10;;;10.20;99.90;;;;;;4413491;32;20154;-78
2021/05/19 04:17:15;;;;;;;9.70;5.97;;;10.20;99.90;;;;;;4423807;32;20130;-77
2021/05/19 04:19:42;;;;;;;8.57;5.33;;;10.20;99.90;;;;;;4411052;32;20232;-78
2021/05/19 04:22:09;;;;;;;7.50;5.67;;;10.10;99.90;;;;;;4419020;32;20202;-78
2021/05/19 04:24:36;;;;;;;10.23;5.30;;;10.10;99.90;;;;;;4423588;32;20154;-78
2021/05/19 04:27:03;;;;;;;8.90;5.30;;;10.20;99.90;;;;;;4423303;32;20134;-78
2021/05/19 04:29:30;;;;;;;8.30;5.43;;;10.20;99.90;;;;;;4425287;32;20201;-77
2021/05/19 04:31:57;;;;;;;8.60;5.60;;;10.20;99.90;;;;;;4425340;32;20161;-78
2021/05/19 04:34:24;;;;;;;8.97;5.80;;;10.20;99.90;;;;;;4423694;32;20147;-76
2021/05/19 04:36:51;;;;;;;10.50;6.07;;;10.30;99.90;;;;;;4424676;32;20241;-76
2021/05/19 04:39:17;;;;;;;9.50;5.77;;;10.40;99.90;;;;;;4425143;32;20153;-77
2021/05/19 04:41:44;;;;;;;10.40;5.80;;;10.40;99.90;;;;;;4423721;32;20128;-76
2021/05/19 04:44:11;;;;;;;9.37;5.50;;;10.40;99.90;;;;;;4424936;32;20139;-77
2021/05/19 04:46:39;;;;;;;7.97;5.27;;;10.30;99.90;;;;;;4425155;32;20373;-77
2021/05/19 04:49:06;;;;;;;9.10;5.50;;;10.20;99.90;;;;;;4423699;32;20146;-77
2021/05/19 04:51:33;;;;;;;10.47;5.67;;;10.20;99.90;;;;;;4423656;32;20190;-76
2021/05/19 04:54:00;;;;;;;8.47;5.50;;;10.20;99.90;;;;;;4424987;32;20135;-76
2021/05/19 04:56:27;;;;;;;8.10;5.50;;;10.20;99.90;;;;;;4425109;32;20157;-76
2021/05/19 04:58:54;;;;;;;6.77;5.20;;;10.20;99.90;;;;;;4423680;32;20139;-77
2021/05/19 05:01:21;;;;;;;9.50;5.53;;;10.20;99.90;;;;;;4423752;32;20170;-76
2021/05/19 05:03:48;;;;;;;9.10;5.80;;;10.20;99.90;;;;;;4425143;32;20139;-76
2021/05/19 05:06:15;;;;;;;8.00;5.10;;;10.30;99.90;;;;;;4426356;32;20387;-77
2021/05/19 05:08:42;;;;;;;7.80;5.30;;;10.30;99.90;;;;;;4426484;32;20460;-76
2021/05/19 05:11:09;;;;;;;9.00;5.27;;;10.40;99.90;;;;;;4426521;32;20168;-77
2021/05/19 05:13:36;;;;;;;8.70;5.50;;;10.30;99.90;;;;;;4427689;32;20210;-77
2021/05/19 05:16:03;;;;;;;7.23;5.43;;;10.30;99.90;;;;;;4427042;32;20188;-76
2021/05/19 05:18:35;;;;;;;8.30;5.80;;;10.30;99.90;;;;;;4426221;32;20165;-76
2021/05/19 05:21:03;;;;;;;7.17;5.50;;;10.40;99.90;;;;;;4421296;32;20144;-77
2021/05/19 05:23:31;;;;;;;8.07;5.83;;;10.30;99.90;;;;;;4415151;32;20174;-77
2021/05/19 05:25:58;;;;;;;10.37;5.63;;;10.30;99.90;;;;;;4417461;32;20514;-77
2021/05/19 05:28:27;;;;;;;7.57;5.20;;;10.40;99.90;;;;;;4426239;32;20158;-77
2021/05/19 05:30:55;;;;;;;7.40;5.00;;;10.50;99.90;;;;;;4419092;32;20364;-77
2021/05/19 05:33:23;;;;;;;9.93;5.13;;;10.50;99.90;;;;;;4412416;32;20171;-78
2021/05/19 05:35:50;;;;;;;6.80;5.07;;;10.40;99.90;;;;;;4410248;32;20508;-78
2021/05/19 05:38:17;;;;;;;8.53;4.90;;;10.30;99.90;;;;;;4423488;32;20469;-78
2021/05/19 05:40:44;;;;;;;8.47;5.53;;;10.30;99.90;;;;;;4425537;32;20181;-79
2021/05/19 05:43:12;;;;;;;9.93;6.43;;;10.20;99.90;;;;;;4426748;32;20492;-76
2021/05/19 05:45:38;;;;;;;9.70;6.40;;;10.20;99.90;;;;;;4426162;32;20334;-77
2021/05/19 05:48:06;;;;;;;9.63;6.90;;;10.20;99.90;;;;;;4425987;32;20139;-77
2021/05/19 05:50:33;;;;;;;12.50;6.50;;;10.30;99.90;;;;;;4426873;32;20163;-78
2021/05/19 05:53:00;;;;;;;11.40;7.40;;;10.40;99.90;;;;;;4425305;32;20151;-77
2021/05/19 05:55:27;;;;;;;11.57;7.10;;;10.40;99.90;;;;;;4424385;32;20155;-76
2021/05/19 05:57:54;;;;;;;12.40;8.53;;;10.40;99.90;;;;;;4423167;32;20151;-76
2021/05/19 06:00:21;;;;;;;11.37;7.40;;;10.30;99.90;;;;;;4423399;32;20214;-76
2021/05/19 06:02:49;;;;;;;10.83;6.63;;;10.30;99.90;;;;;;4423022;32;20201;-76
2021/05/19 06:05:16;;;;;;;10.23;6.90;;;10.30;99.90;;;;;;4422943;32;20163;-77
2021/05/19 06:07:43;;;;;;;10.80;7.50;;;10.20;99.90;;;;;;4423122;32;20177;-77
2021/05/19 06:10:11;;;;;;;12.10;7.30;;;10.20;99.90;;;;;;4425009;32;20534;-77
2021/05/19 06:12:38;;;;;;;12.17;7.70;;;10.20;99.90;;;;;;4425343;32;20158;-77
2021/05/19 06:15:06;;;;;;;13.07;7.40;;;10.20;99.90;;;;;;4425525;32;20158;-77
2021/05/19 06:17:33;;;;;;;13.20;7.90;;;10.40;99.90;;;;;;4426350;32;20179;-77
2021/05/19 06:20:00;;;;;;;12.13;8.03;;;10.50;99.90;;;;;;4425268;32;20394;-76
2021/05/19 06:22:27;;;;;;;11.50;7.33;;;10.50;99.90;;;;;;4425564;32;20499;-77
2021/05/19 06:24:55;;;;;;;11.80;7.63;;;10.60;99.90;;;;;;4425300;32;20135;-77
2021/05/19 06:27:21;;;;;;;13.40;8.20;;;10.70;99.90;;;;;;4425087;32;20142;-77
2021/05/19 06:29:49;;;;;;;11.90;8.10;;;10.80;99.90;;;;;;4426569;32;20162;-77
2021/05/19 06:32:16;;;;;;;10.70;7.60;;;10.60;99.90;;;;;;4425063;32;20171;-77
2021/05/19 06:34:43;;;;;;;12.47;8.33;;;10.70;99.90;;;;;;4426445;32;20139;-76
2021/05/19 06:37:11;;;;;;;14.50;8.50;;;10.70;99.90;;;;;;4424777;32;20262;-76
2021/05/19 06:39:38;;;;;;;13.57;8.70;;;10.70;99.90;;;;;;4424872;32;20165;-75
2021/05/19 06:42:05;;;;;;;14.27;8.37;;;10.70;99.90;;;;;;4424710;32;20465;-75
2021/05/19 06:44:32;;;;;;;16.13;9.73;;;10.80;99.90;;;;;;4417742;32;20249;-77
2021/05/19 06:46:59;;;;;;;16.00;9.50;;;10.80;99.90;;;;;;4419211;32;20151;-76
2021/05/19 06:49:27;;;;;;;15.17;9.57;;;10.80;99.90;;;;;;4409629;32;20233;-75
2021/05/19 06:51:54;;;;;;;17.80;10.33;;;10.90;99.90;;;;;;4409489;32;20127;-74
2021/05/19 06:54:22;;;;;;;17.00;10.13;;;11.00;99.90;;;;;;4409986;32;20150;-74
2021/05/19 06:56:49;;;;;;;16.27;10.00;;;11.10;99.90;;;;;;4409755;32;20165;-75
2021/05/19 06:59:18;;;;;;;17.83;11.00;;;11.20;99.90;;;;;;4409810;32;20174;-76
2021/05/19 07:01:45;;;;;;;15.43;10.87;;;11.30;99.90;;;;;;4409444;32;20184;-75
2021/05/19 07:04:13;;;;;;;14.00;10.50;;;11.30;99.90;;;;;;4409477;32;20163;-76
2021/05/19 07:06:40;;;;;;;16.70;10.43;;;11.30;99.90;;;;;;4410989;32;20194;-76
2021/05/19 07:09:07;;;;;;;17.37;10.50;;;11.20;99.90;;;;;;4415779;32;20147;-76
2021/05/19 07:11:34;;;;;;;17.03;10.63;;;11.10;99.90;;;;;;4408732;32;20193;-76
2021/05/19 07:14:04;;;;;;;15.97;10.40;;;11.00;99.90;;;;;;4409447;32;20453;-76
2021/05/19 07:16:33;;;;;;;16.63;11.57;;;11.10;99.90;;;;;;4409195;32;20166;-76
2021/05/19 07:19:00;;;;;;;18.93;11.40;;;11.20;99.90;;;;;;4410720;32;20235;-76
2021/05/19 07:21:27;;;;;;;21.10;11.53;;;11.30;99.90;;;;;;4409259;32;20227;-76
2021/05/19 07:23:54;;;;;;;16.17;10.77;;;11.40;99.90;;;;;;4409272;32;20170;-75
2021/05/19 07:26:23;;;;;;;17.47;10.60;;;11.40;99.90;;;;;;4409003;32;20446;-76
2021/05/19 07:28:52;;;;;;;15.33;10.47;;;11.30;99.90;;;;;;4417070;32;20143;-76
2021/05/19 07:31:19;;;;;;;16.73;11.83;;;11.30;99.90;;;;;;4408894;32;20143;-76
2021/05/19 07:33:47;;;;;;;15.80;11.07;;;11.50;99.90;;;;;;4408973;32;20153;-75
2021/05/19 07:36:14;;;;;;;17.23;10.00;;;11.60;99.90;;;;;;4408253;32;20468;-75
2021/05/19 07:38:41;;;;;;;16.67;10.47;;;11.50;99.90;;;;;;4410474;32;20166;-76
2021/05/19 07:41:08;;;;;;;15.43;9.87;;;11.40;99.90;;;;;;4408948;32;20192;-79
2021/05/19 07:43:35;;;;;;;14.77;10.20;;;11.40;99.90;;;;;;4409194;32;20147;-76
2021/05/19 07:46:02;;;;;;;17.43;10.60;;;11.40;99.90;;;;;;4418983;32;20177;-78
2021/05/19 07:48:28;;;;;;;17.17;11.20;;;11.40;99.90;;;;;;4409398;32;20128;-80
2021/05/19 07:50:54;;;;;;;16.97;10.87;;;11.40;99.90;;;;;;4408724;32;20135;-70
2021/05/19 07:53:19;;;;;;;17.60;10.60;;;11.60;99.90;;;;;;4410513;32;20147;-71
2021/05/19 07:58:25;;;;;;;16.37;10.87;;;11.60;99.90;;;;;;4409248;32;20368;-71
2021/05/19 08:03:17;;;;;;;17.07;10.83;;;11.90;99.90;;;;;;4409584;32;20131;-71
2021/05/19 08:05:44;;;;;;;17.67;11.67;;;11.90;99.90;;;;;;4396707;32;20453;-71
2021/05/19 08:08:10;;;;;;;16.40;11.20;;;11.90;99.90;;;;;;4408860;32;20190;-71
2021/05/19 08:10:37;;;;;;;17.07;10.67;;;11.80;99.90;;;;;;4408857;32;20148;-72
2021/05/19 08:13:03;;;;;;;17.77;10.43;;;11.70;99.90;;;;;;4411314;32;20171;-72
2021/05/19 08:15:29;;;;;;;14.63;9.97;;;11.70;99.90;;;;;;4415433;32;20166;-72
2021/05/19 08:17:55;;;;;;;17.07;11.33;;;11.70;99.90;;;;;;4408671;32;20426;-71
2021/05/19 08:20:22;;;;;;;19.23;10.77;;;11.70;99.90;;;;;;4409479;32;20134;-71
2021/05/19 08:22:49;;;;;;;17.07;10.83;;;11.90;99.90;;;;;;4408730;32;20284;-74
2021/05/19 08:25:16;;;;;;;20.30;11.00;;;12.00;99.90;;;;;;4408626;32;20139;-72
2021/05/19 08:27:44;;;;;;;19.93;11.87;;;12.10;99.90;;;;;;4409948;32;20360;-71
2021/05/19 08:30:13;;;;;;;18.97;12.20;;;12.30;99.90;;;;;;4408698;32;20135;-73
2021/05/19 08:32:40;;;;;;;14.97;9.60;;;12.40;99.90;;;;;;4410019;32;20438;-72
2021/05/19 08:35:08;;;;;;;17.00;10.57;;;12.40;99.90;;;;;;4405899;32;20177;-74
2021/05/19 08:37:36;;;;;;;16.70;10.30;;;12.50;99.90;;;;;;4407837;32;20241;-75
2021/05/19 08:40:04;;;;;;;14.70;10.17;;;12.60;99.90;;;;;;4411080;32;20504;-75
2021/05/19 08:42:38;;;;;;;16.47;10.10;;;12.50;99.90;;;;;;4409056;32;20177;-73
2021/05/19 08:45:08;;;;;;;15.23;10.00;;;12.50;99.90;;;;;;4417165;32;20151;-75
2021/05/19 08:47:35;;;;;;;16.43;10.10;;;12.60;99.90;;;;;;4426091;32;20196;-74
2021/05/19 08:50:05;;;;;;;15.67;9.80;;;12.50;99.90;;;;;;4423947;32;20151;-71
2021/05/19 08:52:37;;;;;;;16.47;11.27;;;12.50;99.90;;;;;;4427471;32;20410;-70
2021/05/19 08:55:10;;;;;;;18.23;11.43;;;12.70;99.90;;;;;;4427912;32;20189;-72
2021/05/19 08:57:39;;;;;;;15.13;10.37;;;13.00;99.90;;;;;;4426473;32;20425;-71
2021/05/19 09:00:08;;;;;;;16.87;9.07;;;13.20;99.90;;;;;;4425627;32;20234;-73
2021/05/19 09:02:36;;;;;;;13.47;9.13;;;13.20;99.90;;;;;;4424813;32;20169;-72
2021/05/19 09:05:04;;;;;;;13.20;9.50;;;13.40;99.90;;;;;;4426347;32;20178;-72
2021/05/19 09:07:31;;;;;;;14.70;9.57;;;13.50;99.90;;;;;;4426439;32;20163;-72
2021/05/19 09:10:17;;;;;;;14.20;9.20;;;13.60;99.90;;;;;;4426399;32;20161;-71
2021/05/19 09:12:44;;;;;;;14.77;8.87;;;13.60;99.90;;;;;;4427795;32;20158;-72
2021/05/19 09:15:13;;;;;;;12.23;8.67;;;13.70;99.90;;;;;;4426091;32;20421;-71
2021/05/19 09:17:40;;;;;;;10.77;8.30;;;13.90;99.90;;;;;;4426313;32;20157;-72
2021/05/19 09:20:13;;;;;;;23.40;8.90;;;13.70;99.90;;;;;;4427522;32;20173;-72
2021/05/19 09:22:44;;;;;;;11.77;8.70;;;13.50;99.90;;;;;;4421217;32;20212;-74
2021/05/19 09:25:26;;;;;;;14.30;9.47;;;13.60;99.90;;;;;;4427016;32;20170;-73
2021/05/19 09:27:58;;;;;;;14.17;9.60;;;13.80;99.90;;;;;;4425900;32;20143;-73
2021/05/19 09:30:42;;;;;;;12.90;8.60;;;14.10;99.90;;;;;;4424965;32;20184;-71
2021/05/19 09:33:17;;;;;;;13.97;8.63;;;14.00;99.90;;;;;;4424826;32;20212;-74
2021/05/19 09:36:05;;;;;;;15.70;9.23;;;14.00;99.90;;;;;;4425639;32;20240;-72
2021/05/19 09:38:32;;;;;;;12.43;8.47;;;14.00;99.90;;;;;;4424418;32;20176;-73
2021/05/19 09:41:25;;;;;;;12.37;8.60;;;14.00;99.90;;;;;;4425736;32;20156;-74
2021/05/19 09:43:56;;;;;;;12.70;9.00;;;13.90;99.90;;;;;;4427437;32;20446;-73
2021/05/19 09:46:36;;;;;;;13.50;9.43;;;13.90;99.90;;;;;;4422723;32;20209;-74
2021/05/19 09:49:20;;;;;;;17.53;8.83;;;13.50;99.90;;;;;;4425937;32;20212;-73
2021/05/19 09:52:10;;;;;;;15.10;9.00;;;13.40;99.90;;;;;;4425274;32;20172;-73
2021/05/19 09:54:42;;;;;;;14.97;9.83;;;13.70;99.90;;;;;;4426616;32;20144;-75
2021/05/19 09:57:11;;;;;;;14.83;9.60;;;14.00;99.90;;;;;;4427384;32;20504;-73
2021/05/19 09:59:42;;;;;;;16.30;9.63;;;14.20;99.90;;;;;;4426962;32;20151;-73
2021/05/19 10:02:10;;;;;;;12.93;8.83;;;14.40;99.90;;;;;;4426692;32;20490;-72
2021/05/19 10:04:50;;;;;;;11.93;7.93;;;14.30;99.90;;;;;;4426706;32;20135;-72
2021/05/19 10:07:19;;;;;;;12.90;7.87;;;14.20;99.90;;;;;;4424900;32;20217;-74
2021/05/19 10:09:46;;;;;;;12.20;8.80;;;14.10;99.90;;;;;;4425099;32;20143;-74
2021/05/19 10:12:14;;;;;;;13.20;8.77;;;14.30;99.90;;;;;;4420518;32;20182;-73
2021/05/19 10:14:42;;;;;;;11.47;7.97;;;14.40;99.90;;;;;;4425952;32;20189;-74
2021/05/19 10:17:11;;;;;;;13.47;8.63;;;14.30;99.90;;;;;;4425514;32;20155;-74
2021/05/19 10:20:05;;;;;;;13.40;7.90;;;14.40;99.90;;;;;;4422168;32;20145;-73
2021/05/19 10:22:34;;;;;;;11.90;8.00;;;14.50;99.90;;;;;;4411290;32;20170;-73
2021/05/19 10:25:04;;;;;;;11.77;7.00;;;14.90;99.90;;;;;;4411626;32;20203;-72
2021/05/19 10:27:46;;;;;;;10.93;6.67;;;15.00;99.90;;;;;;4424401;32;20197;-74
2021/05/19 10:30:43;;;;;;;9.73;6.30;;;15.00;99.90;;;;;;4417423;32;20151;-74
2021/05/19 10:33:29;;;;;;;11.20;6.63;;;14.90;99.90;;;;;;4414271;32;20222;-75
2021/05/19 10:36:01;;;;;;;10.00;6.37;;;15.00;99.90;;;;;;4424144;32;20147;-74
2021/05/19 10:38:35;;;;;;;7.77;5.30;;;15.10;99.90;;;;;;4423152;32;20151;-73
2021/05/19 10:41:05;;;;;;;7.87;5.50;;;15.10;99.90;;;;;;4413504;32;20146;-73
2021/05/19 10:43:54;;;;;;;6.67;4.87;;;15.10;99.90;;;;;;4419029;32;20152;-73
2021/05/19 10:46:47;;;;;;;8.97;4.97;;;15.20;99.90;;;;;;4408902;32;20154;-74
2021/05/19 10:49:19;;;;;;;8.97;4.63;;;15.30;99.90;;;;;;4423992;32;20177;-73
2021/05/19 10:52:07;;;;;;;11.70;5.00;;;15.80;99.90;;;;;;4425682;32;20146;-73
2021/05/19 10:57:59;;;;;;;6.77;4.33;;;15.90;99.90;;;;;;4425853;32;20489;-73
2021/05/19 11:00:28;;;;;;;7.20;4.30;;;15.90;99.90;;;;;;4423895;32;20209;-74
2021/05/19 11:05:23;;;;;;;4.40;3.40;;;15.90;99.90;;;;;;4419750;32;20159;-72
2021/05/19 11:08:10;;;;;;;6.63;3.90;;;15.90;99.90;;;;;;4422964;32;20477;-72
2021/05/19 11:10:39;;;;;;;5.97;3.63;;;15.60;99.90;;;;;;4424041;32;20162;-73
2021/05/19 11:13:07;;;;;;;9.27;4.00;;;15.50;99.90;;;;;;4425462;32;20167;-73
2021/05/19 11:18:22;;;;;;;7.17;3.07;;;16.00;99.90;;;;;;4424047;32;20200;-74
2021/05/19 11:20:49;;;;;;;5.27;2.73;;;16.00;99.90;;;;;;4425801;32;20188;-73
2021/05/19 11:23:17;;;;;;;5.07;3.00;;;16.10;99.90;;;;;;4424006;32;20166;-74
2021/05/19 11:25:45;;;;;;;5.43;3.00;;;16.40;99.90;;;;;;4418860;32;20150;-75
2021/05/19 11:28:13;;;;;;;3.73;2.70;;;16.90;99.90;;;;;;4423663;32;20188;-76
2021/05/19 11:30:40;;;;;;;3.33;2.73;;;17.40;99.90;;;;;;4423763;32;20219;-76
2021/05/19 11:33:10;;;;;;;5.13;3.33;;;18.20;99.90;;;;;;4423795;32;20180;-77
2021/05/19 11:35:38;;;;;;;4.47;3.07;;;18.60;99.90;;;;;;4423795;32;20163;-75
2021/05/19 11:38:11;;;;;;;4.10;3.13;;;17.70;95.00;;;;;;4410301;32;20150;-76
2021/05/19 11:40:39;;;;;;;5.87;3.10;;;18.00;98.70;;;;;;4424081;32;20143;-73
2021/05/19 11:43:07;;;;;;;7.53;3.03;;;18.90;99.20;;;;;;4424969;32;20211;-74
2021/05/19 11:45:34;;;;;;;3.43;3.00;;;19.80;99.70;;;;;;4423445;32;20227;-74
2021/05/19 11:48:01;;;;;;;4.27;2.77;;;20.40;92.20;;;;;;4421368;32;20449;-74
2021/05/19 11:50:33;;;;;;;6.93;2.93;;;20.10;80.30;;;;;;4423557;32;20150;-74
2021/05/19 11:53:11;;;;;;;3.87;3.10;;;20.10;86.50;;;;;;4423001;32;20144;-74
2021/05/19 11:55:46;;;;;;;5.13;2.73;;;20.00;85.70;;;;;;4423588;32;20161;-74
2021/05/19 11:58:14;;;;;;;4.27;2.83;;;20.70;83.90;;;;;;4416203;32;20216;-71
2021/05/19 12:00:55;;;;;;;3.37;2.73;;;19.90;74.10;;;;;;4418365;32;20224;-73
2021/05/19 12:03:24;;;;;;;3.17;2.60;;;20.50;82.70;;;;;;4423343;32;20159;-73
2021/05/19 12:05:54;;;;;;;3.30;2.97;;;21.40;72.80;;;;;;4423253;32;20428;-73
2021/05/19 12:08:37;;;;;;;3.77;3.00;;;21.70;67.20;;;;;;4422460;32;20150;-73
2021/05/19 12:11:16;;;;;;;4.47;2.70;;;22.00;67.10;;;;;;4423988;32;20252;-74
2021/05/19 12:13:46;;;;;;;5.93;2.60;;;21.60;67.30;;;;;;4422447;32;20178;-74
2021/05/19 12:16:18;;;;;;;3.23;2.57;;;21.70;62.90;;;;;;4422964;32;20197;-74
2021/05/19 12:19:09;;;;;;;4.87;2.50;;;21.10;65.40;;;;;;4423163;32;20154;-74
2021/05/19 12:22:00;;;;;;;3.13;2.30;;;21.40;60.70;;;;;;4410128;32;20415;-74
2021/05/19 12:24:28;;;;;;;2.67;2.20;;;21.50;59.70;;;;;;4409454;32;20167;-74
2021/05/19 12:26:56;;;;;;;2.87;2.00;;;22.20;60.00;;;;;;4422892;32;20288;-73
2021/05/19 12:29:32;;;;;;;1.83;1.70;;;22.90;58.90;;;;;;4423215;32;20554;-75
2021/05/19 12:32:24;;;;;;;2.73;1.60;;;23.50;58.60;;;;;;4422671;32;20142;-74
2021/05/19 12:35:08;;;;;;;2.17;1.90;;;23.10;54.30;;;;;;4424721;32;20143;-74
2021/05/19 12:37:44;;;;;;;2.33;2.10;;;23.50;53.70;;;;;;4423721;32;20420;-74
2021/05/19 12:40:15;;;;;;;2.37;2.10;;;22.50;56.00;;;;;;4422361;32;20150;-74
2021/05/19 12:42:44;;;;;;;3.13;2.30;;;22.30;58.50;;;;;;4419128;32;20142;-74
2021/05/19 12:45:13;;;;;;;4.87;2.20;;;22.50;59.20;;;;;;4422889;32;20173;-74
2021/05/19 12:47:41;;;;;;;2.57;1.90;;;22.40;55.60;;;;;;4422894;32;20421;-73
2021/05/19 12:50:09;;;;;;;3.87;2.03;;;22.70;57.30;;;;;;4424509;32;20173;-73
2021/05/19 12:52:37;;;;;;;3.57;2.13;;;22.00;54.90;;;;;;4422907;32;20204;-74
2021/05/19 12:55:05;;;;;;;3.60;1.97;;;22.80;56.70;;;;;;4422817;32;20182;-74
2021/05/19 12:57:36;;;;;;;2.63;1.90;;;23.60;55.70;;;;;;4423008;32;20159;-75
2021/05/19 13:00:14;;;;;;;3.60;2.00;;;23.80;51.70;;;;;;4420538;32;20201;-73
2021/05/19 13:02:44;;;;;;;4.63;2.20;;;23.40;53.00;;;;;;4421589;32;20169;-74
2021/05/19 13:05:26;;;;;;;2.63;1.90;;;23.50;52.20;;;;;;4407533;32;20147;-73